createdAt,value
2023-01-23T00:01:33.278Z,103726.00
2023-01-23T00:04:00.867Z,103724.28
2023-01-23T00:06:28.245Z,103722.59
2023-01-23T00:08:56.785Z,103719.63
2023-01-23T00:11:26.596Z,103706.88
2023-01-23T00:13:53.744Z,103713.31
2023-01-23T00:16:22.367Z,103700.53
2023-01-23T00:18:50.271Z,103700.63
2023-01-23T00:21:20.382Z,103698.03
2023-01-23T00:23:52.732Z,103699.59
2023-01-23T00:26:21.951Z,103707.31
2023-01-23T00:28:49.073Z,103710.69
2023-01-23T00:31:22.531Z,103721.97
2023-01-23T00:33:54.524Z,103711.38
2023-01-23T00:36:21.235Z,103712.28
2023-01-23T00:38:47.971Z,103706.19
2023-01-23T00:41:14.921Z,103713.19
2023-01-23T00:43:42.386Z,103710.69
2023-01-23T00:46:09.170Z,103715.91
2023-01-23T00:48:35.964Z,103723.47
2023-01-23T00:51:02.737Z,103712.75
2023-01-23T00:53:29.401Z,103717.63
2023-01-23T00:55:56.084Z,103708.63
2023-01-23T00:58:22.795Z,103713.03
2023-01-23T01:00:49.504Z,103715.03
2023-01-23T01:03:16.236Z,103716.06
2023-01-23T01:05:43.012Z,103715.34
2023-01-23T01:08:09.775Z,103719.97
2023-01-23T01:10:36.520Z,103721.09
2023-01-23T01:13:03.945Z,103717.91
2023-01-23T01:15:31.018Z,103717.31
2023-01-23T01:17:59.145Z,103716.50
2023-01-23T01:20:27.950Z,103715.81
2023-01-23T01:22:56.735Z,103707.94
2023-01-23T01:25:23.581Z,103697.44
2023-01-23T01:27:50.535Z,103692.16
2023-01-23T01:30:18.550Z,103687.97
2023-01-23T01:32:45.438Z,103690.75
2023-01-23T01:35:12.177Z,103684.00
2023-01-23T01:37:40.847Z,103684.81
2023-01-23T01:40:10.072Z,103691.47
2023-01-23T01:42:44.894Z,103706.34
2023-01-23T01:45:49.076Z,103703.75
2023-01-23T01:48:16.475Z,103708.50
2023-01-23T01:50:43.410Z,103706.41
2023-01-23T01:53:11.408Z,103705.38
2023-01-23T01:55:39.351Z,103705.09
2023-01-23T01:58:07.341Z,103698.66
2023-01-23T02:00:34.086Z,103696.44
2023-01-23T02:03:02.875Z,103695.25
2023-01-23T02:05:35.327Z,103706.97
2023-01-23T02:08:50.533Z,103691.19
2023-01-23T02:11:18.651Z,103694.59
2023-01-23T02:13:46.162Z,103688.28
2023-01-23T02:16:40.268Z,103690.56
2023-01-23T02:19:18.875Z,103684.13
2023-01-23T02:21:51.847Z,103685.63
2023-01-23T02:24:32.136Z,103689.47
2023-01-23T02:26:58.940Z,103691.59
2023-01-23T02:29:26.332Z,103692.94
2023-01-23T02:31:53.429Z,103687.25
2023-01-23T02:34:22.328Z,103688.50
2023-01-23T02:36:49.724Z,103686.22
2023-01-23T02:39:19.640Z,103688.03
2023-01-23T02:41:48.996Z,103673.84
2023-01-23T02:44:33.697Z,103675.63
2023-01-23T02:47:07.986Z,103672.03
2023-01-23T02:49:34.766Z,103677.00
2023-01-23T02:52:01.423Z,103672.72
2023-01-23T02:54:28.161Z,103677.31
2023-01-23T02:56:54.951Z,103675.06
2023-01-23T02:59:40.584Z,103672.69
2023-01-23T03:02:07.560Z,103666.13
2023-01-23T03:04:34.313Z,103654.94
2023-01-23T03:07:01.317Z,103657.66
2023-01-23T03:09:28.080Z,103660.13
2023-01-23T03:11:54.804Z,103656.53
2023-01-23T03:14:23.938Z,103658.94
2023-01-23T03:16:52.955Z,103648.56
2023-01-23T03:19:23.411Z,103659.13
2023-01-23T03:21:51.408Z,103658.25
2023-01-23T03:24:18.260Z,103650.25
2023-01-23T03:26:46.762Z,103653.53
2023-01-23T03:29:36.832Z,103646.34
2023-01-23T03:32:04.064Z,103635.16
2023-01-23T03:34:31.587Z,103641.16
2023-01-23T03:36:58.675Z,103637.97
2023-01-23T03:39:44.347Z,103639.06
2023-01-23T03:42:11.136Z,103637.75
2023-01-23T03:44:37.921Z,103635.63
2023-01-23T03:47:05.542Z,103637.31
2023-01-23T03:49:32.819Z,103637.53
2023-01-23T03:51:59.902Z,103647.31
2023-01-23T03:54:27.280Z,103644.84
2023-01-23T03:56:54.139Z,103656.91
2023-01-23T03:59:20.800Z,103654.41
2023-01-23T04:01:48.232Z,103655.66
2023-01-23T04:04:15.332Z,103650.56
2023-01-23T04:06:42.026Z,103651.03
2023-01-23T04:09:09.253Z,103652.09
2023-01-23T04:11:35.927Z,103651.25
2023-01-23T04:14:02.639Z,103649.81
2023-01-23T04:16:29.331Z,103658.94
2023-01-23T04:18:56.134Z,103667.53
2023-01-23T04:21:23.060Z,103673.28
2023-01-23T04:23:49.936Z,103672.16
2023-01-23T04:26:16.719Z,103674.53
2023-01-23T04:28:43.476Z,103673.97
2023-01-23T04:31:10.239Z,103674.09
2023-01-23T04:33:37.005Z,103669.00
2023-01-23T04:36:06.019Z,103664.94
2023-01-23T04:38:34.758Z,103668.44
2023-01-23T04:41:01.515Z,103665.84
2023-01-23T04:43:28.367Z,103667.53
2023-01-23T04:45:56.372Z,103666.53
2023-01-23T04:48:23.910Z,103657.22
2023-01-23T04:50:51.518Z,103660.91
2023-01-23T04:53:18.860Z,103670.06
2023-01-23T04:55:49.279Z,103676.28
2023-01-23T04:58:17.264Z,103672.09
2023-01-23T05:00:43.931Z,103670.59
2023-01-23T05:03:10.700Z,103662.97
2023-01-23T05:05:37.478Z,103656.97
2023-01-23T05:08:04.311Z,103652.59
2023-01-23T05:10:31.146Z,103653.50
2023-01-23T05:12:57.912Z,103663.19
2023-01-23T05:15:24.605Z,103670.38
2023-01-23T05:17:51.283Z,103669.72
2023-01-23T05:20:18.296Z,103672.16
2023-01-23T05:22:54.181Z,103667.00
2023-01-23T05:25:22.766Z,103664.31
2023-01-23T05:27:49.773Z,103665.28
2023-01-23T05:30:17.538Z,103660.03
2023-01-23T05:32:44.459Z,103665.19
2023-01-23T05:35:11.905Z,103658.91
2023-01-23T05:37:38.845Z,103657.06
2023-01-23T05:40:08.810Z,103657.78
2023-01-23T05:42:35.630Z,103654.97
2023-01-23T05:45:02.301Z,103665.78
2023-01-23T05:47:29.098Z,103669.84
2023-01-23T05:49:55.836Z,103665.78
2023-01-23T05:52:22.566Z,103678.06
2023-01-23T05:54:50.456Z,103679.75
2023-01-23T05:57:17.385Z,103671.97
2023-01-23T05:59:44.567Z,103665.19
2023-01-23T06:02:12.229Z,103664.44
2023-01-23T06:04:39.050Z,103666.09
2023-01-23T06:07:05.807Z,103663.31
2023-01-23T06:09:32.524Z,103672.44
2023-01-23T06:11:59.212Z,103666.81
2023-01-23T06:14:25.867Z,103670.19
2023-01-23T06:16:52.521Z,103667.59
2023-01-23T06:19:19.172Z,103674.47
2023-01-23T06:21:46.432Z,103666.47
2023-01-23T06:24:13.164Z,103676.75
2023-01-23T06:26:39.807Z,103676.59
2023-01-23T06:29:06.613Z,103674.69
2023-01-23T06:31:33.560Z,103674.69
2023-01-23T06:34:00.555Z,103677.50
2023-01-23T06:36:27.527Z,103664.69
2023-01-23T06:38:54.358Z,103666.47
2023-01-23T06:41:21.568Z,103662.19
2023-01-23T06:43:49.107Z,103664.78
2023-01-23T06:46:15.886Z,103659.72
2023-01-23T06:48:42.884Z,103658.03
2023-01-23T06:51:09.810Z,103666.81
2023-01-23T06:53:36.572Z,103659.91
2023-01-23T06:56:06.049Z,103668.50
2023-01-23T06:58:34.190Z,103683.94
2023-01-23T07:01:18.536Z,103677.72
2023-01-23T07:03:45.718Z,103682.25
2023-01-23T07:06:13.227Z,103679.75
2023-01-23T07:08:40.381Z,103671.22
2023-01-23T07:11:07.518Z,103677.38
2023-01-23T07:13:34.495Z,103683.59
2023-01-23T07:16:01.664Z,103691.38
2023-01-23T07:18:30.427Z,103690.34
2023-01-23T07:20:57.233Z,103698.09
2023-01-23T07:23:23.963Z,103708.47
2023-01-23T07:25:50.819Z,103707.25
2023-01-23T07:28:17.563Z,103706.00
2023-01-23T07:30:44.276Z,103715.00
2023-01-23T07:33:12.293Z,103715.22
2023-01-23T07:35:39.702Z,103721.75
2023-01-23T07:38:06.367Z,103728.28
2023-01-23T07:40:33.019Z,103730.50
2023-01-23T07:42:59.699Z,103719.81
2023-01-23T07:45:26.429Z,103716.56
2023-01-23T07:47:53.135Z,103722.88
2023-01-23T07:50:20.037Z,103715.56
2023-01-23T07:52:46.908Z,103718.59
2023-01-23T07:55:13.641Z,103715.34
2023-01-23T07:57:40.328Z,103716.22
2023-01-23T08:00:07.870Z,103719.06
2023-01-23T08:02:34.609Z,103730.31
2023-01-23T08:05:02.023Z,103732.22
2023-01-23T08:07:28.704Z,103731.44
2023-01-23T08:09:55.369Z,103722.53
2023-01-23T08:12:22.051Z,103723.22
2023-01-23T08:14:48.715Z,103722.22
2023-01-23T08:17:15.429Z,103727.16
2023-01-23T08:19:42.076Z,103716.56
2023-01-23T08:22:08.755Z,103723.56
2023-01-23T08:24:35.432Z,103724.09
2023-01-23T08:27:02.149Z,103720.50
2023-01-23T08:29:28.853Z,103726.03
2023-01-23T08:31:55.600Z,103725.34
2023-01-23T08:34:24.112Z,103724.13
2023-01-23T08:36:50.842Z,103730.31
2023-01-23T08:39:18.072Z,103730.78
2023-01-23T08:41:44.773Z,103726.16
2023-01-23T08:44:11.758Z,103718.16
2023-01-23T08:46:38.748Z,103713.66
2023-01-23T08:49:05.443Z,103708.56
2023-01-23T08:51:32.254Z,103724.66
2023-01-23T08:53:58.944Z,103731.75
2023-01-23T08:56:26.145Z,103714.78
2023-01-23T08:58:53.367Z,103714.53
2023-01-23T09:01:23.572Z,103718.25
2023-01-23T09:03:50.780Z,103713.59
2023-01-23T09:06:20.875Z,103723.19
2023-01-23T09:08:48.047Z,103717.22
2023-01-23T09:11:15.538Z,103725.00
2023-01-23T09:13:42.470Z,103710.59
2023-01-23T09:16:09.565Z,103711.13
2023-01-23T09:18:37.100Z,103713.59
2023-01-23T09:21:08.935Z,103711.13
2023-01-23T09:23:35.880Z,103708.00
2023-01-23T09:26:13.642Z,103697.50
2023-01-23T09:28:42.838Z,103693.22
2023-01-23T09:31:12.297Z,103690.13
2023-01-23T09:33:39.113Z,103697.41
2023-01-23T09:36:06.255Z,103702.16
2023-01-23T09:38:34.297Z,103702.63
2023-01-23T09:41:09.302Z,103701.50
2023-01-23T09:43:39.804Z,103693.38
2023-01-23T09:46:19.553Z,103686.63
2023-01-23T09:48:53.877Z,103677.75
2023-01-23T09:51:49.715Z,103672.44
2023-01-23T09:54:28.220Z,103664.66
2023-01-23T09:56:56.850Z,103675.59
2023-01-23T09:59:28.978Z,103676.97
2023-01-23T10:01:56.480Z,103681.22
2023-01-23T10:04:23.665Z,103677.38
2023-01-23T10:07:10.972Z,103677.03
2023-01-23T10:10:02.663Z,103679.19
2023-01-23T10:13:03.028Z,103677.97
2023-01-23T10:15:47.828Z,103676.72
2023-01-23T10:18:33.176Z,103684.59
2023-01-23T10:21:24.098Z,103678.28
2023-01-23T10:24:11.585Z,103677.38
2023-01-23T10:26:43.435Z,103662.66
2023-01-23T10:29:31.220Z,103660.72
2023-01-23T10:32:01.498Z,103663.44
2023-01-23T10:34:52.173Z,103666.34
2023-01-23T10:37:25.804Z,103663.84
2023-01-23T10:40:40.127Z,103658.91
2023-01-23T10:43:19.779Z,103659.13
2023-01-23T10:45:48.733Z,103649.66
2023-01-23T10:48:44.113Z,103651.56
2023-01-23T10:51:38.673Z,103647.19
2023-01-23T10:54:25.960Z,103637.28
2023-01-23T10:57:08.505Z,103637.00
2023-01-23T11:00:18.070Z,103627.75
2023-01-23T11:02:44.925Z,103619.31
2023-01-23T11:05:52.207Z,103611.09
2023-01-23T11:08:40.549Z,103619.25
2023-01-23T11:11:16.552Z,103614.50
2023-01-23T11:13:45.250Z,103606.94
2023-01-23T11:16:17.471Z,103608.66
2023-01-23T11:18:53.351Z,103608.75
2023-01-23T11:21:27.817Z,103611.75
2023-01-23T11:24:13.473Z,103601.97
2023-01-23T11:26:40.144Z,103600.06
2023-01-23T11:29:24.100Z,103605.25
2023-01-23T11:32:13.330Z,103589.00
2023-01-23T11:34:50.859Z,103579.66
2023-01-23T11:37:23.126Z,103576.28
2023-01-23T11:40:08.239Z,103571.16
2023-01-23T11:42:40.267Z,103580.06
2023-01-23T11:45:25.520Z,103575.09
2023-01-23T11:48:48.490Z,103565.13
2023-01-23T11:51:24.748Z,103560.25
2023-01-23T11:53:57.072Z,103576.16
2023-01-23T11:56:29.682Z,103561.94
2023-01-23T11:59:09.280Z,103565.13
2023-01-23T12:02:05.419Z,103561.34
2023-01-23T12:05:14.937Z,103551.53
2023-01-23T12:08:02.757Z,103551.44
2023-01-23T12:10:44.848Z,103542.56
2023-01-23T12:13:23.677Z,103541.16
2023-01-23T12:16:12.044Z,103550.97
2023-01-23T12:18:51.118Z,103550.16
2023-01-23T12:21:20.056Z,103543.97
2023-01-23T12:24:02.696Z,103535.41
2023-01-23T12:26:31.650Z,103538.78
2023-01-23T12:29:13.740Z,103544.66
2023-01-23T12:31:41.126Z,103533.16
2023-01-23T12:34:13.938Z,103538.19
2023-01-23T12:37:08.272Z,103541.34
2023-01-23T12:39:48.973Z,103540.34
2023-01-23T12:42:31.044Z,103532.44
2023-01-23T12:45:22.469Z,103534.16
2023-01-23T12:47:55.287Z,103537.75
2023-01-23T12:50:31.179Z,103540.34
2023-01-23T12:53:18.430Z,103538.94
2023-01-23T12:56:18.920Z,103526.66
2023-01-23T12:59:05.803Z,103509.31
2023-01-23T13:02:11.102Z,103509.25
2023-01-23T13:05:16.132Z,103506.44
2023-01-23T13:07:54.194Z,103506.00
2023-01-23T13:10:50.240Z,103501.50
2023-01-23T13:13:19.348Z,103516.38
2023-01-23T13:16:03.654Z,103516.59
2023-01-23T13:18:50.457Z,103525.25
2023-01-23T13:21:35.571Z,103518.28
2023-01-23T13:24:56.125Z,103515.56
2023-01-23T13:27:40.174Z,103523.56
2023-01-23T13:30:22.419Z,103520.19
2023-01-23T13:32:51.528Z,103518.59
2023-01-23T13:35:47.337Z,103510.34
2023-01-23T13:38:25.513Z,103509.66
2023-01-23T13:41:30.522Z,103508.06
2023-01-23T13:44:18.052Z,103503.75
2023-01-23T14:21:55.019Z,103462.50
2023-01-23T14:24:32.084Z,103464.09
2023-01-23T14:27:08.523Z,103460.38
2023-01-23T14:29:36.304Z,103464.81
2023-01-23T14:32:03.160Z,103469.09
2023-01-23T14:34:29.868Z,103460.22
2023-01-23T14:37:06.464Z,103463.50
2023-01-23T14:39:35.570Z,103466.69
2023-01-23T14:42:05.334Z,103459.38
2023-01-23T14:44:36.021Z,103468.75
2023-01-23T14:47:05.104Z,103480.13
2023-01-23T14:49:35.385Z,103470.66
2023-01-23T14:52:05.615Z,103474.81
2023-01-23T14:54:34.634Z,103479.03
2023-01-23T14:57:05.647Z,103484.09
2023-01-23T14:59:38.858Z,103487.59
2023-01-23T15:02:31.372Z,103487.69
2023-01-23T15:05:23.565Z,103488.72
2023-01-23T15:07:58.308Z,103499.16
2023-01-23T15:10:35.165Z,103499.28
2023-01-23T15:13:05.268Z,103492.41
2023-01-23T15:15:34.873Z,103490.09
2023-01-23T15:18:03.574Z,103493.81
2023-01-23T15:20:41.262Z,103490.41
2023-01-23T15:23:38.330Z,103499.41
2023-01-23T15:26:32.730Z,103489.25
2023-01-23T15:29:08.923Z,103480.78
2023-01-23T15:31:42.960Z,103477.47
2023-01-23T15:34:15.823Z,103468.19
2023-01-23T15:36:54.764Z,103463.91
2023-01-23T15:39:26.048Z,103459.72
2023-01-23T15:41:56.673Z,103467.63
2023-01-23T15:44:27.974Z,103452.06
2023-01-23T15:46:56.526Z,103456.31
2023-01-23T15:49:26.395Z,103452.94
2023-01-23T15:51:58.462Z,103455.44
2023-01-23T15:54:36.194Z,103442.38
2023-01-23T15:57:08.773Z,103452.94
2023-01-23T15:59:36.850Z,103455.63
2023-01-23T16:02:05.046Z,103449.06
2023-01-23T16:04:32.162Z,103450.16
2023-01-23T16:07:07.611Z,103442.47
2023-01-23T16:09:38.500Z,103446.25
2023-01-23T16:12:05.585Z,103448.06
2023-01-23T16:14:32.292Z,103443.75
2023-01-23T16:17:11.463Z,103439.38
2023-01-23T16:19:42.955Z,103437.66
2023-01-23T16:22:18.117Z,103439.56
2023-01-23T16:24:45.007Z,103436.78
2023-01-23T16:27:18.365Z,103440.88
2023-01-23T16:29:45.399Z,103451.06
2023-01-23T16:32:12.485Z,103448.84
2023-01-23T16:34:39.234Z,103445.06
2023-01-23T16:37:12.116Z,103457.72
2023-01-23T16:39:41.595Z,103454.84
2023-01-23T16:42:16.982Z,103468.59
2023-01-23T16:44:43.636Z,103460.50
2023-01-23T16:47:10.308Z,103475.06
2023-01-23T16:49:51.406Z,103472.47
2023-01-23T16:52:19.431Z,103485.44
2023-01-23T16:54:46.239Z,103472.59
2023-01-23T16:57:19.568Z,103478.75
2023-01-23T16:59:46.659Z,103465.00
2023-01-23T17:02:19.166Z,103468.59
2023-01-23T17:04:45.831Z,103474.78
2023-01-23T17:07:15.766Z,103475.75
2023-01-23T17:09:42.801Z,103472.41
2023-01-23T17:12:16.717Z,103471.78
2023-01-23T17:14:46.079Z,103471.09
2023-01-23T17:17:17.416Z,103465.31
2023-01-23T17:19:44.521Z,103469.81
2023-01-23T17:22:24.877Z,103469.22
2023-01-23T17:24:51.740Z,103480.69
2023-01-23T17:27:18.498Z,103478.38
2023-01-23T17:29:45.155Z,103475.09
2023-01-23T17:32:35.466Z,103469.28
2023-01-23T17:35:06.377Z,103471.19
2023-01-23T17:37:34.605Z,103463.63
2023-01-23T17:40:01.918Z,103464.78
2023-01-23T17:42:28.563Z,103466.78
2023-01-23T17:44:55.230Z,103465.09
2023-01-23T17:47:22.000Z,103463.50
2023-01-23T17:49:54.886Z,103461.78
2023-01-23T17:52:21.918Z,103458.41
2023-01-23T17:54:49.313Z,103460.19
2023-01-23T17:57:16.269Z,103467.38
2023-01-23T17:59:42.956Z,103452.81
2023-01-23T18:02:28.616Z,103445.22
2023-01-23T18:04:55.824Z,103443.41
2023-01-23T18:07:22.696Z,103443.19
2023-01-23T18:09:49.432Z,103447.31
2023-01-23T18:12:27.446Z,103446.41
2023-01-23T18:15:06.946Z,103447.22
2023-01-23T18:18:03.023Z,103447.13
2023-01-23T18:20:32.305Z,103434.94
2023-01-23T18:23:00.244Z,103432.25
2023-01-23T18:25:27.271Z,103434.03
2023-01-23T18:27:56.212Z,103434.25
2023-01-23T18:30:39.365Z,103426.53
2023-01-23T18:33:17.918Z,103433.63
2023-01-23T18:36:00.220Z,103430.06
2023-01-23T18:38:43.883Z,103423.84
2023-01-23T18:41:13.364Z,103410.00
2023-01-23T18:43:44.698Z,103413.47
2023-01-23T18:46:16.454Z,103409.19
2023-01-23T18:48:45.510Z,103408.38
2023-01-23T18:51:42.143Z,103421.53
2023-01-23T18:54:29.849Z,103414.06
2023-01-23T18:57:26.874Z,103398.50
2023-01-23T19:00:24.171Z,103398.50
2023-01-23T19:02:55.268Z,103391.47
2023-01-23T19:05:28.131Z,103387.19
2023-01-23T19:07:55.304Z,103389.00
2023-01-23T19:10:24.792Z,103381.41
2023-01-23T19:13:07.595Z,103378.06
2023-01-23T19:16:03.633Z,103372.09
2023-01-23T19:19:10.752Z,103357.31
2023-01-23T19:21:42.532Z,103342.66
2023-01-23T19:24:12.257Z,103341.72
2023-01-23T19:26:41.150Z,103321.06
2023-01-23T19:29:25.801Z,103321.13
2023-01-23T19:32:04.159Z,103324.75
2023-01-23T19:34:33.278Z,103315.25
2023-01-23T19:36:59.941Z,103312.66
2023-01-23T19:39:26.579Z,103310.94
2023-01-23T19:41:54.411Z,103311.84
2023-01-23T19:44:24.960Z,103308.53
2023-01-23T19:46:52.513Z,103314.72
2023-01-23T19:49:19.486Z,103318.31
2023-01-23T19:51:46.735Z,103310.69
2023-01-23T19:54:15.174Z,103315.19
2023-01-23T19:56:42.585Z,103307.47
2023-01-23T19:59:10.106Z,103310.06
2023-01-23T20:01:48.717Z,103300.69
2023-01-23T20:04:25.860Z,103293.88
2023-01-23T20:06:52.649Z,103290.56
2023-01-23T20:09:19.957Z,103287.06
2023-01-23T20:11:47.055Z,103297.63
2023-01-23T20:14:14.008Z,103283.06
2023-01-23T20:16:43.161Z,103297.19
2023-01-23T20:19:14.991Z,103284.31
2023-01-23T20:21:42.619Z,103288.88
2023-01-23T20:24:09.438Z,103276.78
2023-01-23T20:26:36.999Z,103269.16
2023-01-23T20:29:05.295Z,103270.13
2023-01-23T20:31:33.358Z,103268.53
2023-01-23T20:34:00.320Z,103268.72
2023-01-23T20:36:27.430Z,103265.47
2023-01-23T20:38:54.399Z,103272.63
2023-01-23T20:41:21.199Z,103264.22
2023-01-23T20:43:48.152Z,103247.91
2023-01-23T20:46:16.520Z,103248.19
2023-01-23T20:48:44.904Z,103254.34
2023-01-23T20:51:13.852Z,103257.03
2023-01-23T20:53:40.950Z,103250.22
2023-01-23T20:56:13.295Z,103234.78
2023-01-23T20:59:04.062Z,103234.97
2023-01-23T21:01:51.954Z,103231.47
2023-01-23T21:04:18.980Z,103242.88
2023-01-23T21:06:45.804Z,103221.16
2023-01-23T21:09:12.615Z,103196.22
2023-01-23T21:11:39.406Z,103187.78
2023-01-23T21:14:06.163Z,103181.84
2023-01-23T21:16:33.007Z,103188.09
2023-01-23T21:19:00.710Z,103203.09
2023-01-23T21:21:27.532Z,103199.50
2023-01-23T21:23:54.296Z,103195.28
2023-01-23T21:26:24.459Z,103200.66
2023-01-23T21:28:53.115Z,103195.59
2023-01-23T21:31:26.020Z,103193.16
2023-01-23T21:33:53.885Z,103184.75
2023-01-23T21:36:23.809Z,103190.06
2023-01-23T21:38:51.511Z,103187.66
2023-01-23T21:41:19.079Z,103197.34
2023-01-23T21:43:45.944Z,103189.59
2023-01-23T21:46:12.780Z,103167.91
2023-01-23T21:48:39.637Z,103179.53
2023-01-23T21:51:11.747Z,103173.59
2023-01-23T21:53:44.693Z,103165.84
2023-01-23T21:56:13.581Z,103177.25
2023-01-23T21:58:42.337Z,103149.53
2023-01-23T22:01:33.495Z,103153.19
2023-01-23T22:04:03.897Z,103148.97
2023-01-23T22:06:31.714Z,103143.91
2023-01-23T22:08:58.523Z,103133.50
2023-01-23T22:11:25.740Z,103140.50
2023-01-23T22:13:53.096Z,103129.09
2023-01-23T22:16:22.818Z,103128.38
2023-01-23T22:18:52.371Z,103125.94
2023-01-23T22:21:19.131Z,103136.50
2023-01-23T22:23:45.871Z,103120.16
2023-01-23T22:26:12.620Z,103114.22
2023-01-23T22:28:39.340Z,103109.09
2023-01-23T22:31:14.336Z,103106.63
2023-01-23T22:33:47.362Z,103100.59
2023-01-23T22:36:19.620Z,103118.00
2023-01-23T22:38:54.254Z,103111.25
2023-01-23T22:41:21.533Z,103105.25
2023-01-23T22:43:55.870Z,103113.22
2023-01-23T22:46:23.505Z,103110.66
2023-01-23T22:48:50.821Z,103114.25
2023-01-23T22:51:23.659Z,103106.50
2023-01-23T22:53:51.545Z,103103.06
2023-01-23T22:56:18.301Z,103101.44
2023-01-23T22:58:50.238Z,103109.25
2023-01-23T23:01:18.431Z,103108.59
2023-01-23T23:03:45.763Z,103100.78
2023-01-23T23:06:15.216Z,103111.44
2023-01-23T23:08:42.691Z,103119.31
2023-01-23T23:11:13.292Z,103120.22
2023-01-23T23:13:40.994Z,103134.22
2023-01-23T23:16:12.879Z,103125.50
2023-01-23T23:18:40.585Z,103122.97
2023-01-23T23:21:11.112Z,103118.75
2023-01-23T23:23:38.068Z,103109.28
2023-01-23T23:26:06.191Z,103100.72
2023-01-23T23:28:33.625Z,103093.91
2023-01-23T23:31:00.477Z,103095.75
2023-01-23T23:33:27.565Z,103094.84
2023-01-23T23:35:54.381Z,103084.53
2023-01-23T23:38:21.788Z,103108.91
2023-01-23T23:41:06.071Z,103104.59
2023-01-23T23:43:33.817Z,103090.84
2023-01-23T23:46:02.906Z,103081.41
2023-01-23T23:48:31.270Z,103071.91
2023-01-23T23:51:06.385Z,103060.69
2023-01-23T23:53:33.982Z,103046.00
2023-01-23T23:56:00.729Z,103053.03
2023-01-23T23:58:27.643Z,103053.09
